TAF Text Data
IDs:
Format:
Raw Decoded Include METAR

Data at: 2037 UTC 20 Sep 2018

KFMN 201953Z 27011G16KT 10SM CLR 24/06 A3003 RMK AO2 SLP117 T02390061

KFMN 201739Z 2018/2118 28010KT P6SM SKC
  FM202000 29018G28KT P6SM SKC
  FM210200 31009KT P6SM SKC
  FM210800 07005KT P6SM SKC